createdAt,value
2019-04-05T00:00:42.901Z,100647.58
2019-04-05T00:03:13.103Z,100648.00
2019-04-05T00:05:43.452Z,100647.56
2019-04-05T00:08:14.039Z,100658.00
2019-04-05T00:10:44.613Z,100671.50
2019-04-05T00:13:14.961Z,100674.14
2019-04-05T00:15:46.062Z,100671.09
2019-04-05T00:18:16.486Z,100679.41
2019-04-05T00:20:46.658Z,100679.84
2019-04-05T00:23:17.119Z,100695.48
2019-04-05T00:25:47.574Z,100685.52
2019-04-05T00:28:18.039Z,100685.52
2019-04-05T00:30:48.547Z,100685.45
2019-04-05T00:41:17.422Z,100701.48
2019-04-05T00:43:47.786Z,100705.80
2019-04-05T00:46:18.101Z,100699.77
2019-04-05T00:48:48.344Z,100698.52
2019-04-05T00:51:19.106Z,100698.94
2019-04-05T00:53:49.746Z,100707.63
2019-04-05T00:56:20.478Z,100715.05
2019-04-05T00:58:50.707Z,100708.50
2019-04-05T01:01:21.177Z,100714.17
2019-04-05T01:03:51.394Z,100722.03
2019-04-05T01:06:21.792Z,100718.95
2019-04-05T01:08:52.189Z,100709.80
2019-04-05T01:11:22.629Z,100709.34
2019-04-05T01:13:54.015Z,100723.25
2019-04-05T01:16:24.439Z,100723.69
2019-04-05T01:18:54.866Z,100735.87
2019-04-05T01:21:26.776Z,100734.98
2019-04-05T01:23:59.933Z,100736.28
2019-04-05T01:26:31.702Z,100736.78
2019-04-05T01:29:02.052Z,100731.56
2019-04-05T01:31:32.480Z,100738.95
2019-04-05T01:34:05.420Z,100731.99
2019-04-05T01:36:35.031Z,100745.06
2019-04-05T01:39:07.794Z,100751.17
2019-04-05T01:41:38.390Z,100757.70
2019-04-05T01:44:09.173Z,100766.41
2019-04-05T01:46:39.745Z,100753.84
2019-04-05T01:49:09.993Z,100747.78
2019-04-05T01:51:40.429Z,100750.77
2019-04-05T01:54:10.890Z,100759.03
2019-04-05T01:56:41.146Z,100761.20
2019-04-05T01:59:11.592Z,100760.80
2019-04-05T02:01:42.016Z,100765.98
2019-04-05T02:04:12.244Z,100754.25
2019-04-05T02:06:42.849Z,100760.77
2019-04-05T02:09:13.628Z,100753.78
2019-04-05T02:14:18.966Z,100756.45
2019-04-05T02:16:49.731Z,100759.41
2019-04-05T02:19:20.142Z,100759.84
2019-04-05T02:21:50.501Z,100755.44
2019-04-05T02:24:20.950Z,100750.66
2019-04-05T02:26:51.278Z,100758.48
2019-04-05T02:29:21.633Z,100760.65
2019-04-05T02:31:52.192Z,100761.98
2019-04-05T02:34:22.528Z,100757.64
2019-04-05T02:36:52.832Z,100759.37
2019-04-05T02:39:23.364Z,100761.14
2019-04-05T02:42:03.605Z,100758.54
2019-04-05T02:44:43.063Z,100762.91
2019-04-05T02:47:14.557Z,100757.67
2019-04-05T02:49:46.256Z,100755.93
2019-04-05T02:52:20.265Z,100763.75
2019-04-05T02:54:51.828Z,100768.50
2019-04-05T02:57:22.837Z,100771.98
2019-04-05T02:59:53.724Z,100775.90
2019-04-05T03:02:24.382Z,100769.81
2019-04-05T03:04:54.659Z,100770.22
2019-04-05T03:07:26.403Z,100774.53
2019-04-05T03:09:57.467Z,100782.82
2019-04-05T03:12:28.153Z,100787.66
2019-04-05T03:14:59.228Z,100780.27
2019-04-05T03:17:29.728Z,100780.27
2019-04-05T03:20:02.687Z,100778.97
2019-04-05T03:22:34.386Z,100782.87
2019-04-05T03:25:05.232Z,100777.23
2019-04-05T03:27:38.427Z,100776.33
2019-04-05T03:30:09.817Z,100770.68
2019-04-05T03:32:40.126Z,100778.94
2019-04-05T03:35:10.581Z,100781.52
2019-04-05T03:37:40.867Z,100781.52
2019-04-05T03:40:11.485Z,100786.30
2019-04-05T03:42:41.916Z,100788.91
2019-04-05T03:45:12.608Z,100794.99
2019-04-05T03:47:43.052Z,100788.88
2019-04-05T03:50:13.654Z,100801.98
2019-04-05T03:52:44.247Z,100803.28
2019-04-05T03:55:14.814Z,100800.67
2019-04-05T03:57:45.045Z,100797.19
2019-04-05T04:00:15.598Z,100798.06
2019-04-05T04:02:45.835Z,100798.06
2019-04-05T04:05:16.059Z,100804.18
2019-04-05T04:07:46.323Z,100804.58
2019-04-05T04:10:22.633Z,100808.52
2019-04-05T04:12:53.090Z,100808.09
2019-04-05T04:15:23.872Z,100809.39
2019-04-05T04:17:54.254Z,100805.92
2019-04-05T04:20:45.376Z,100808.49
2019-04-05T04:23:16.233Z,100810.70
2019-04-05T04:25:52.377Z,100813.31
2019-04-05T04:28:22.856Z,100811.13
2019-04-05T04:30:53.347Z,100812.41
2019-04-05T04:33:23.652Z,100816.32
2019-04-05T04:35:54.628Z,100814.17
2019-04-05T04:38:25.323Z,100813.77
2019-04-05T04:40:56.335Z,100810.73
2019-04-05T04:43:27.158Z,100808.96
2019-04-05T04:45:57.445Z,100811.56
2019-04-05T04:48:29.191Z,100808.44
2019-04-05T04:51:00.026Z,100811.77
2019-04-05T04:53:30.509Z,100802.99
2019-04-05T04:56:00.721Z,100812.47
2019-04-05T04:58:31.101Z,100807.25
2019-04-05T05:01:01.406Z,100814.61
2019-04-05T05:03:32.051Z,100808.90
2019-04-05T05:06:08.250Z,100810.14
2019-04-05T05:08:38.450Z,100810.52
2019-04-05T05:11:14.686Z,100804.80
2019-04-05T05:13:41.367Z,100806.54
2019-04-05T05:16:11.668Z,100809.98
2019-04-05T05:18:42.045Z,100811.26
2019-04-05T05:21:12.242Z,100817.31
2019-04-05T05:23:42.550Z,100812.53
2019-04-05T05:26:12.874Z,100809.89
2019-04-05T05:28:43.410Z,100811.16
2019-04-05T05:31:13.870Z,100818.52
2019-04-05T05:33:44.491Z,100820.66
2019-04-05T05:36:14.941Z,100822.36
2019-04-05T05:38:45.506Z,100820.16
2019-04-05T05:41:15.968Z,100821.89
2019-04-05T05:43:46.330Z,100818.78
2019-04-05T05:46:16.611Z,100820.95
2019-04-05T05:48:46.939Z,100803.55
2019-04-05T05:51:17.924Z,100805.69
2019-04-05T05:53:48.101Z,100819.55
2019-04-05T05:56:18.354Z,100829.06
2019-04-05T05:58:48.745Z,100830.41
2019-04-05T06:01:19.055Z,100830.41
2019-04-05T06:03:49.266Z,100826.45
2019-04-05T06:06:19.534Z,100833.37
2019-04-05T06:08:49.590Z,100836.38
2019-04-05T06:11:19.732Z,100843.80
2019-04-05T06:13:49.914Z,100845.97
2019-04-05T06:16:20.168Z,100852.48
2019-04-05T06:18:50.346Z,100855.52
2019-04-05T06:21:20.477Z,100854.22
2019-04-05T06:23:50.645Z,100853.42
2019-04-05T06:26:20.776Z,100864.32
2019-04-05T06:28:51.120Z,100865.22
2019-04-05T06:31:21.319Z,100862.62
2019-04-05T06:33:51.403Z,100862.19
2019-04-05T06:36:21.604Z,100859.14
2019-04-05T06:38:51.665Z,100854.37
2019-04-05T06:41:21.795Z,100855.23
2019-04-05T06:43:51.870Z,100853.50
2019-04-05T06:46:21.935Z,100851.76
2019-04-05T06:48:52.071Z,100847.78
2019-04-05T06:51:22.269Z,100858.64
2019-04-05T06:53:52.397Z,100850.45
2019-04-05T06:56:22.503Z,100849.63
2019-04-05T06:58:52.724Z,100843.14
2019-04-05T07:01:22.834Z,100845.85
2019-04-05T07:03:55.254Z,100847.25
2019-04-05T07:06:24.697Z,100857.31
2019-04-05T07:08:54.913Z,100858.72
2019-04-05T07:11:25.149Z,100848.42
2019-04-05T07:13:55.291Z,100861.09
2019-04-05T07:16:25.603Z,100866.80
2019-04-05T07:18:55.656Z,100864.30
2019-04-05T07:21:25.828Z,100865.31
2019-04-05T07:23:55.902Z,100867.20
2019-04-05T07:26:26.166Z,100866.05
2019-04-05T07:28:56.305Z,100863.95
2019-04-05T07:31:26.607Z,100856.17
2019-04-05T07:33:56.807Z,100857.51
2019-04-05T07:36:26.901Z,100862.73
2019-04-05T07:38:57.074Z,100868.41
2019-04-05T07:41:27.565Z,100859.30
2019-04-05T07:43:57.793Z,100864.52
2019-04-05T07:46:27.935Z,100865.42
2019-04-05T07:48:58.107Z,100861.94
2019-04-05T07:51:28.355Z,100879.45
2019-04-05T07:53:58.551Z,100876.42
2019-04-05T07:56:28.757Z,100877.78
2019-04-05T07:58:58.899Z,100879.66
2019-04-05T08:01:29.118Z,100886.77
2019-04-05T08:03:59.361Z,100892.10
2019-04-05T08:06:30.454Z,100893.95
2019-04-05T08:09:10.998Z,100895.77
2019-04-05T08:11:44.105Z,100884.92
2019-04-05T08:14:17.830Z,100887.51
2019-04-05T08:16:47.420Z,100887.51
2019-04-05T08:19:17.723Z,100890.05
2019-04-05T08:21:47.913Z,100886.94
2019-04-05T08:24:18.157Z,100884.75
2019-04-05T08:26:48.343Z,100890.44
2019-04-05T08:29:18.507Z,100888.25
2019-04-05T08:31:48.666Z,100893.86
2019-04-05T08:34:18.972Z,100887.33
2019-04-05T08:36:49.243Z,100891.78
2019-04-05T08:39:19.448Z,100901.87
2019-04-05T08:41:49.576Z,100896.67
2019-04-05T08:44:19.904Z,100902.42
2019-04-05T08:46:50.070Z,100902.02
2019-04-05T08:49:20.176Z,100898.53
2019-04-05T08:51:50.225Z,100902.03
2019-04-05T08:54:31.936Z,100896.77
2019-04-05T08:56:52.409Z,100895.05
2019-04-05T08:59:22.550Z,100898.13
2019-04-05T09:01:52.817Z,100897.72
2019-04-05T09:04:23.110Z,100891.66
2019-04-05T09:06:53.318Z,100893.87
2019-04-05T09:09:24.776Z,100893.47
2019-04-05T09:11:55.064Z,100895.62
2019-04-05T09:14:25.168Z,100888.22
2019-04-05T09:16:55.312Z,100893.92
2019-04-05T09:19:25.459Z,100886.52
2019-04-05T09:21:55.775Z,100890.48
2019-04-05T09:24:25.873Z,100888.78
2019-04-05T09:26:56.018Z,100890.98
2019-04-05T09:29:26.299Z,100886.19
2019-04-05T09:31:56.442Z,100884.05
2019-04-05T09:34:26.647Z,100879.77
2019-04-05T09:36:56.749Z,100884.20
2019-04-05T09:39:26.915Z,100892.02
2019-04-05T09:41:56.982Z,100892.83
2019-04-05T09:44:27.560Z,100888.45
2019-04-05T09:46:57.778Z,100887.61
2019-04-05T09:49:36.709Z,100886.34
2019-04-05T09:52:04.396Z,100885.94
2019-04-05T09:54:34.510Z,100883.33
2019-04-05T09:57:04.689Z,100872.86
2019-04-05T09:59:34.885Z,100886.03
2019-04-05T10:02:05.104Z,100883.03
2019-04-05T10:04:35.224Z,100879.12
2019-04-05T10:07:05.720Z,100878.72
2019-04-05T10:09:35.901Z,100882.70
2019-04-05T10:12:06.928Z,100883.66
2019-04-05T10:14:37.133Z,100879.31
2019-04-05T10:19:49.810Z,100879.38
2019-04-05T10:22:14.825Z,100884.17
2019-04-05T10:24:44.893Z,100878.94
2019-04-05T10:27:15.129Z,100882.41
2019-04-05T10:29:45.207Z,100876.73
2019-04-05T10:32:15.501Z,100880.67
2019-04-05T10:34:45.744Z,100878.50
2019-04-05T10:37:15.852Z,100876.31
2019-04-05T10:39:45.998Z,100872.35
2019-04-05T10:42:30.955Z,100874.08
2019-04-05T10:45:01.295Z,100874.11
2019-04-05T10:47:31.566Z,100874.55
2019-04-05T10:50:03.237Z,100881.13
2019-04-05T10:52:33.887Z,100879.81
2019-04-05T10:55:04.305Z,100878.48
2019-04-05T10:57:34.533Z,100875.44
2019-04-05T11:00:06.577Z,100874.99
2019-04-05T11:02:36.709Z,100872.38
2019-04-05T11:05:07.187Z,100870.63
2019-04-05T11:07:37.462Z,100865.36
2019-04-05T11:10:08.475Z,100872.38
2019-04-05T11:12:38.666Z,100872.80
2019-04-05T11:15:09.539Z,100878.05
2019-04-05T11:17:41.509Z,100870.62
2019-04-05T11:20:21.317Z,100869.77
2019-04-05T11:22:46.675Z,100870.64
2019-04-05T11:25:20.494Z,100862.78
2019-04-05T11:27:49.382Z,100857.50
2019-04-05T11:30:42.076Z,100861.00
2019-04-05T11:33:12.698Z,100869.77
2019-04-05T11:35:42.996Z,100865.39
2019-04-05T11:38:14.947Z,100869.31
2019-04-05T11:40:46.127Z,100871.94
2019-04-05T11:43:17.695Z,100871.95
2019-04-05T11:45:48.672Z,100875.00
2019-04-05T11:48:20.112Z,100877.64
2019-04-05T11:50:50.377Z,100875.88
2019-04-05T11:53:22.130Z,100885.50
2019-04-05T11:55:52.361Z,100880.69
2019-04-05T11:58:22.701Z,100882.89
2019-04-05T12:00:59.999Z,100885.05
2019-04-05T12:03:30.524Z,100887.66
2019-04-05T12:06:00.739Z,100881.13
2019-04-05T12:08:30.883Z,100882.89
2019-04-05T12:11:01.078Z,100879.36
2019-04-05T12:13:31.227Z,100880.69
2019-04-05T12:16:01.492Z,100882.86
2019-04-05T12:18:34.415Z,100884.59
2019-04-05T12:21:05.749Z,100877.17
2019-04-05T12:23:35.455Z,100876.72
2019-04-05T12:26:06.956Z,100875.42
2019-04-05T12:28:37.174Z,100874.57
2019-04-05T12:31:07.415Z,100866.27
2019-04-05T12:33:39.294Z,100868.88
2019-04-05T12:36:09.679Z,100869.32
2019-04-05T12:38:40.302Z,100869.75
2019-04-05T12:41:11.498Z,100873.25
2019-04-05T12:43:44.595Z,100872.39
2019-04-05T12:46:15.909Z,100872.80
2019-04-05T12:48:46.618Z,100877.17
2019-04-05T12:51:17.276Z,100869.30
2019-04-05T12:53:47.587Z,100870.61
2019-04-05T12:56:18.137Z,100870.20
2019-04-05T12:58:48.398Z,100865.38
2019-04-05T13:01:20.195Z,100862.31
2019-04-05T13:03:51.395Z,100858.83
2019-04-05T13:06:22.649Z,100857.07
2019-04-05T13:08:53.905Z,100856.20
2019-04-05T13:11:26.769Z,100860.11
2019-04-05T13:13:57.004Z,100853.09
2019-04-05T13:16:27.569Z,100857.80
2019-04-05T13:19:00.560Z,100848.05
2019-04-05T13:21:32.103Z,100853.20
2019-04-05T13:24:04.163Z,100847.44
2019-04-05T13:26:36.597Z,100848.69
2019-04-05T13:29:07.012Z,100848.75
2019-04-05T13:31:37.281Z,100840.05
2019-04-05T13:34:07.756Z,100842.27
2019-04-05T13:36:37.904Z,100838.71
2019-04-05T13:39:11.729Z,100842.98
2019-04-05T13:41:41.953Z,100835.53
2019-04-05T13:44:12.237Z,100834.25
2019-04-05T13:46:43.007Z,100841.34
2019-04-05T13:49:13.452Z,100838.80
2019-04-05T13:51:43.764Z,100842.37
2019-04-05T13:54:14.040Z,100839.81
2019-04-05T13:56:44.273Z,100837.20
2019-04-05T13:59:14.696Z,100836.29
2019-04-05T14:01:44.921Z,100841.13
2019-04-05T14:04:17.020Z,100845.54
2019-04-05T14:06:47.161Z,100832.89
2019-04-05T14:09:17.614Z,100841.66
2019-04-05T14:11:47.735Z,100832.50
2019-04-05T14:14:17.991Z,100840.84
2019-04-05T14:16:48.197Z,100836.48
2019-04-05T14:19:19.353Z,100834.73
2019-04-05T14:21:52.693Z,100840.02
2019-04-05T14:24:23.379Z,100836.52
2019-04-05T14:26:53.464Z,100836.55
2019-04-05T14:29:23.787Z,100836.97
2019-04-05T14:31:53.944Z,100838.73
2019-04-05T14:34:24.572Z,100836.53
2019-04-05T14:36:54.839Z,100830.43
2019-04-05T14:39:25.058Z,100834.35
2019-04-05T14:41:55.219Z,100831.30
2019-04-05T14:44:25.451Z,100832.61
2019-04-05T14:46:57.796Z,100834.33
2019-04-05T14:49:30.270Z,100831.27
2019-04-05T14:52:01.237Z,100827.34
2019-04-05T14:54:31.379Z,100830.41
2019-04-05T14:57:05.453Z,100827.80
2019-04-05T14:59:33.727Z,100820.37
2019-04-05T15:02:04.134Z,100822.54
2019-04-05T15:04:34.259Z,100816.88
2019-04-05T15:07:04.605Z,100809.88
2019-04-05T15:09:34.858Z,100806.83
2019-04-05T15:12:05.740Z,100807.70
2019-04-05T15:14:36.403Z,100805.06
2019-04-05T15:17:07.400Z,100805.50
2019-04-05T15:19:37.934Z,100812.50
2019-04-05T15:22:10.873Z,100816.44
2019-04-05T15:24:40.743Z,100812.06
2019-04-05T15:29:55.810Z,100800.70
2019-04-05T15:32:28.089Z,100804.62
2019-04-05T15:34:58.993Z,100808.56
2019-04-05T15:37:32.474Z,100809.88
2019-04-05T15:40:02.049Z,100814.23
2019-04-05T15:42:32.588Z,100804.63
2019-04-05T15:45:03.302Z,100809.41
2019-04-05T15:47:33.812Z,100808.98
2019-04-05T15:50:04.445Z,100809.42
2019-04-05T15:52:34.868Z,100798.06
2019-04-05T15:55:05.747Z,100801.55
2019-04-05T15:57:39.195Z,100803.73
2019-04-05T16:00:10.751Z,100800.23
2019-04-05T16:02:43.101Z,100801.12
2019-04-05T16:05:14.887Z,100796.75
2019-04-05T16:07:47.938Z,100796.75
2019-04-05T16:10:18.620Z,100795.42
2019-04-05T16:12:48.868Z,100798.93
2019-04-05T16:15:19.192Z,100800.64
2019-04-05T16:17:49.366Z,100796.72
2019-04-05T16:20:19.936Z,100789.77
2019-04-05T16:22:50.191Z,100787.13
2019-04-05T16:25:20.531Z,100781.45
2019-04-05T16:27:50.817Z,100791.94
2019-04-05T16:30:21.750Z,100791.08
2019-04-05T16:32:51.964Z,100785.84
2019-04-05T16:35:22.120Z,100790.21
2019-04-05T16:37:52.276Z,100794.15
2019-04-05T16:40:22.510Z,100804.62
2019-04-05T16:43:02.330Z,100803.73
2019-04-05T16:45:24.674Z,100803.73
2019-04-05T16:47:54.936Z,100801.54
2019-04-05T16:50:25.244Z,100800.65
2019-04-05T16:52:55.890Z,100792.33
2019-04-05T16:55:26.078Z,100786.66
2019-04-05T16:57:56.132Z,100787.52
2019-04-05T17:00:26.351Z,100789.70
2019-04-05T17:02:56.494Z,100782.72
2019-04-05T17:05:26.614Z,100788.82
2019-04-05T17:07:56.818Z,100787.52
2019-04-05T17:10:27.110Z,100789.27
2019-04-05T17:12:57.381Z,100787.05
2019-04-05T17:15:27.607Z,100788.36
2019-04-05T17:17:57.826Z,100795.77
2019-04-05T17:20:28.090Z,100790.51
2019-04-05T17:22:58.855Z,100797.91
2019-04-05T17:25:29.065Z,100793.98
2019-04-05T17:27:59.368Z,100796.59
2019-04-05T17:30:29.726Z,100794.41
2019-04-05T17:32:59.975Z,100791.78
2019-04-05T17:35:30.236Z,100790.44
2019-04-05T17:38:00.463Z,100788.71
2019-04-05T17:40:30.702Z,100790.88
2019-04-05T17:43:00.876Z,100784.33
2019-04-05T17:45:31.159Z,100785.60
2019-04-05T17:48:03.354Z,100784.30
2019-04-05T17:50:35.639Z,100786.91
2019-04-05T17:53:12.867Z,100790.80
2019-04-05T17:55:38.575Z,100786.45
2019-04-05T17:58:09.339Z,100783.35
2019-04-05T18:00:39.930Z,100779.87
2019-04-05T18:03:10.465Z,100787.26
2019-04-05T18:05:41.016Z,100771.11
2019-04-05T18:08:11.496Z,100781.14
2019-04-05T18:13:08.277Z,100776.78
2019-04-05T18:15:46.692Z,100788.54
2019-04-05T18:18:10.983Z,100794.22
2019-04-05T18:20:41.608Z,100791.17
2019-04-05T18:23:24.414Z,100805.57
2019-04-05T18:25:44.327Z,100795.53
2019-04-05T18:28:14.833Z,100796.83
2019-04-05T18:30:45.336Z,100803.84
2019-04-05T18:33:15.823Z,100807.32
2019-04-05T18:35:46.420Z,100810.36
2019-04-05T18:38:16.971Z,100810.40
2019-04-05T18:40:47.483Z,100809.52
2019-04-05T18:43:18.010Z,100809.95
2019-04-05T18:45:48.537Z,100809.08
2019-04-05T18:48:18.979Z,100811.27
2019-04-05T18:50:49.503Z,100808.67
2019-04-05T18:53:20.103Z,100810.38
2019-04-05T18:55:50.669Z,100816.50
2019-04-05T18:58:21.173Z,100823.06
2019-04-05T19:00:51.713Z,100831.77
2019-04-05T19:03:22.238Z,100830.91
2019-04-05T19:05:52.794Z,100826.13
2019-04-05T19:08:23.222Z,100838.34
2019-04-05T19:10:53.738Z,100830.94
2019-04-05T19:13:24.262Z,100838.33
2019-04-05T19:15:54.777Z,100837.02
2019-04-05T19:18:25.233Z,100830.91
2019-04-05T19:23:50.000Z,100837.95
2019-04-05T19:26:10.037Z,100838.80
2019-04-05T19:28:40.547Z,100841.42
2019-04-05T19:48:56.429Z,100844.06
2019-04-05T19:51:27.390Z,100845.80
2019-04-05T19:54:01.562Z,100844.05
2019-04-05T19:59:17.982Z,100839.33
2019-04-05T20:01:48.538Z,100844.08
2019-04-05T20:04:18.968Z,100847.99
2019-04-05T20:06:58.077Z,100852.34
2019-04-05T20:09:22.003Z,100844.92
2019-04-05T20:11:52.608Z,100850.59
2019-04-05T20:14:23.191Z,100847.56
2019-04-05T20:16:53.680Z,100847.98
2019-04-05T20:19:24.675Z,100842.75
2019-04-05T20:21:55.126Z,100841.45
2019-04-05T20:24:25.645Z,100840.14
2019-04-05T20:26:56.080Z,100844.49
2019-04-05T20:29:26.646Z,100843.19
2019-04-05T20:31:57.241Z,100839.72
2019-04-05T20:34:27.756Z,100835.79
2019-04-05T20:36:58.293Z,100830.09
2019-04-05T20:39:28.750Z,100839.27
2019-04-05T20:41:59.398Z,100831.84
2019-04-05T20:44:29.916Z,100827.94
2019-04-05T20:47:00.448Z,100830.53
2019-04-05T20:49:31.159Z,100834.44
2019-04-05T20:52:01.605Z,100836.19
2019-04-05T20:54:32.298Z,100831.40
2019-04-05T20:57:02.728Z,100841.41
2019-04-05T20:59:33.326Z,100848.85
2019-04-05T21:02:03.939Z,100844.95
2019-04-05T21:04:34.469Z,100850.61
2019-04-05T21:07:04.886Z,100853.67
2019-04-05T21:09:35.570Z,100851.92
2019-04-05T21:12:07.052Z,100847.57
2019-04-05T21:14:37.696Z,100850.63
2019-04-05T21:17:08.193Z,100851.92
2019-04-05T21:19:38.829Z,100850.61
2019-04-05T21:22:09.378Z,100854.13
2019-04-05T21:24:39.964Z,100856.33
2019-04-05T21:27:12.575Z,100853.84
2019-04-05T21:29:43.101Z,100848.99
2019-04-05T21:32:13.574Z,100850.69
2019-04-05T21:34:44.157Z,100853.73
2019-04-05T21:37:15.024Z,100851.13
2019-04-05T21:39:45.633Z,100849.34
2019-04-05T21:42:16.196Z,100853.27
2019-04-05T21:44:47.044Z,100855.47
2019-04-05T21:47:17.878Z,100862.43
2019-04-05T21:49:48.476Z,100864.63
2019-04-05T21:52:19.780Z,100858.05
2019-04-05T21:54:51.135Z,100859.35
2019-04-05T21:57:21.808Z,100864.16
2019-04-05T21:59:52.420Z,100869.41
2019-04-05T22:02:23.193Z,100868.09
2019-04-05T22:04:53.569Z,100875.48
2019-04-05T22:07:23.683Z,100877.22
2019-04-05T22:09:54.124Z,100878.52
2019-04-05T22:15:13.888Z,100878.92
2019-04-05T22:17:44.642Z,100881.52
2019-04-05T22:20:15.199Z,100884.14
2019-04-05T22:22:45.365Z,100891.12
2019-04-05T22:25:15.750Z,100885.42
2019-04-05T22:27:46.485Z,100891.08
2019-04-05T22:30:17.203Z,100888.03
2019-04-05T22:32:47.461Z,100883.23
2019-04-05T22:35:17.755Z,100879.30
2019-04-05T22:37:48.033Z,100874.48
2019-04-05T22:40:18.347Z,100879.74
2019-04-05T22:42:48.709Z,100876.70
2019-04-05T22:45:19.079Z,100872.77
2019-04-05T22:47:49.324Z,100872.32
2019-04-05T22:50:19.785Z,100869.70
2019-04-05T22:52:50.157Z,100871.91
2019-04-05T22:55:20.458Z,100871.91
2019-04-05T22:57:50.791Z,100868.84
2019-04-05T23:00:21.149Z,100867.55
2019-04-05T23:02:51.281Z,100872.73
2019-04-05T23:05:21.775Z,100876.67
2019-04-05T23:07:51.999Z,100870.95
2019-04-05T23:10:22.288Z,100874.02
2019-04-05T23:12:52.597Z,100874.02
2019-04-05T23:15:22.903Z,100857.84
2019-04-05T23:17:53.201Z,100876.20
2019-04-05T23:20:23.478Z,100867.47
2019-04-05T23:22:53.778Z,100873.56
2019-04-05T23:25:24.087Z,100870.51
2019-04-05T23:27:54.410Z,100875.31
2019-04-05T23:30:26.515Z,100871.39
2019-04-05T23:32:59.997Z,100871.81
2019-04-05T23:35:30.299Z,100863.05
2019-04-05T23:38:00.658Z,100875.28
2019-04-05T23:40:30.967Z,100873.95
2019-04-05T23:43:01.184Z,100880.06
2019-04-05T23:45:31.501Z,100871.76
2019-04-05T23:48:01.812Z,100880.48
2019-04-05T23:50:32.179Z,100873.94
2019-04-05T23:53:02.845Z,100872.64
2019-04-05T23:55:33.869Z,100878.72
2019-04-05T23:58:04.637Z,100881.33
